Valle Di Nervion — IBPC — position and weather

sailwx.info

Track history (hours):
 
Tides and Currents Weather Stations Pressure Air Temp Water Temp Dewpoint Dewpoint Depression Visibility Wind Speed Wind Dir Waves Ship Positions

Valle Di Nervion

Last reported at 2016-Dec-06 02:27 UTC. Time now 2016-Dec-07 12:36 UTC.
Position N 43°24' E 004°60'.

Length 176 m; draft 7.1 m.

Type: Tanker. MMSI: 247109500.

Date/timePositionNaut miles runAvg speedWind from/ knotsBaromVisibWave heightAir tempDewpointWater temp
2016-Dec-06 02:27N 43°24' E 004°60'2 1.8
2016-Dec-06 01:33N 43°23' E 004°58'0 0.1
2016-Dec-06 00:33N 43°23' E 004°57'0 0.0
2016-Dec-05 23:33N 43°23' E 004°58'0 0.0
2016-Dec-05 22:33N 43°23' E 004°57'0 0.0
2016-Dec-05 21:33N 43°23' E 004°57'0 0.0
2016-Dec-05 20:33N 43°23' E 004°57'0 0.0
2016-Dec-05 19:33N 43°23' E 004°57'5 5.4
2016-Dec-05 18:33N 43°18' E 004°60'1110.9
2016-Dec-05 17:30N 43°07' E 005°00'1411.9
2016-Dec-05 16:21N 42°56' E 004°48'  
2016-Dec-03 04:05N 41°13' E 002°47'712.4
2016-Dec-03 03:33N 41°14' E 002°38'18 0.5
2016-Dec-01 14:08N 41°15' E 002°14'910.8
2016-Dec-01 13:16N 41°10' E 002°25'912.2
2016-Dec-01 12:33N 41°06' E 002°36'1211.9
2016-Dec-01 11:33N 41°01' E 002°49'1212.2
2016-Dec-01 10:33N 40°55' E 003°04'1212.2
2016-Dec-01 09:33N 40°49' E 003°18'1212.0
2016-Dec-01 08:33N 40°44' E 003°32'26712.4
2016-Nov-30 11:03N 38°41' E 008°40'21012.6
2016-Nov-29 18:22N 38°25' E 013°08'1012.4
2016-Nov-29 17:33N 38°24' E 013°21'1412.3
2016-Nov-29 16:23N 38°23' E 013°39'1512.1
2016-Nov-29 15:07N 38°21' E 013°58'2412.4
2016-Nov-29 13:10N 38°20' E 014°29'812.7
2016-Nov-29 12:33N 38°19' E 014°39'1312.7
2016-Nov-29 11:33N 38°18' E 014°55'1312.7
2016-Nov-29 10:33N 38°19' E 015°11'7 6.2
2016-Nov-29 09:29N 38°13' E 015°15'0 0.0
2016-Nov-29 08:29N 38°13' E 015°15'0 0.2
2016-Nov-29 07:29N 38°14' E 015°15'0 0.3
2016-Nov-29 06:34N 38°13' E 015°16'1 0.0
2016-Nov-27 10:33N 38°13' E 015°17'1 1.3
2016-Nov-27 09:31N 38°14' E 015°19'0 0.0
2016-Nov-27 08:31N 38°14' E 015°19'0 0.0
2016-Nov-27 07:10N 38°14' E 015°19'0 0.0
2016-Nov-27 06:31N 38°14' E 015°19'0 0.0
2016-Nov-27 05:31N 38°14' E 015°19'0 0.0
2016-Nov-27 04:28N 38°14' E 015°19'0 0.0
2016-Nov-27 03:28N 38°14' E 015°19'0 0.1
2016-Nov-27 02:28N 38°14' E 015°19'0 0.1
2016-Nov-27 01:28N 38°14' E 015°19'0 0.0
2016-Nov-27 00:28N 38°14' E 015°19'0 0.0
2016-Nov-26 23:28N 38°14' E 015°19'0 0.0
2016-Nov-26 22:28N 38°14' E 015°19'0 0.0
2016-Nov-26 21:28N 38°14' E 015°19'0 0.0
2016-Nov-26 20:30N 38°14' E 015°19'0 0.0
2016-Nov-26 19:33N 38°14' E 015°19'0 0.0
2016-Nov-26 18:33N 38°14' E 015°19'0 0.0
2016-Nov-26 17:33N 38°14' E 015°19'0 0.0
2016-Nov-26 16:33N 38°14' E 015°19'0 0.0
2016-Nov-26 15:33N 38°14' E 015°19'0 0.0
2016-Nov-26 14:33N 38°14' E 015°19'0 0.0
2016-Nov-26 13:33N 38°14' E 015°19'0 0.0
2016-Nov-26 12:32N 38°14' E 015°19'0 0.0
2016-Nov-26 11:32N 38°14' E 015°19'0 0.0
2016-Nov-26 10:32N 38°14' E 015°19'0 0.0
2016-Nov-26 09:32N 38°13' E 015°19'0 0.1
2016-Nov-26 08:32N 38°14' E 015°19'0 0.0
2016-Nov-26 07:32N 38°14' E 015°19'0 0.0
2016-Nov-26 06:32N 38°14' E 015°19'0 0.0
2016-Nov-26 05:32N 38°14' E 015°19'0 0.0
2016-Nov-26 04:32N 38°14' E 015°19'0 0.0
2016-Nov-26 03:32N 38°14' E 015°19'0 0.0
2016-Nov-26 02:32N 38°14' E 015°19'  
Track history (hours):
 
Tides and Currents Weather Stations Pressure Air Temp Water Temp Dewpoint Dewpoint Depression Visibility Wind Speed Wind Dir Waves Ship Positions

Valle Di Nervion

Last reported at 2016-Dec-06 02:27 UTC. Time now 2016-Dec-07 12:36 UTC.
Position N 43°24' E 004°60'.

Length 176 m; draft 7.1 m.

Type: Tanker. MMSI: 247109500.

Date/timePositionNaut miles runAvg speedWind from/ knotsBaromVisibWave heightAir tempDewpointWater temp
2016-Dec-06 02:27N 43°24' E 004°60'2 1.8
2016-Dec-06 01:33N 43°23' E 004°58'0 0.1
2016-Dec-06 00:33N 43°23' E 004°57'0 0.0
2016-Dec-05 23:33N 43°23' E 004°58'0 0.0
2016-Dec-05 22:33N 43°23' E 004°57'0 0.0
2016-Dec-05 21:33N 43°23' E 004°57'0 0.0
2016-Dec-05 20:33N 43°23' E 004°57'0 0.0
2016-Dec-05 19:33N 43°23' E 004°57'5 5.4
2016-Dec-05 18:33N 43°18' E 004°60'1110.9
2016-Dec-05 17:30N 43°07' E 005°00'1411.9
2016-Dec-05 16:21N 42°56' E 004°48'  
2016-Dec-03 04:05N 41°13' E 002°47'712.4
2016-Dec-03 03:33N 41°14' E 002°38'18 0.5
2016-Dec-01 14:08N 41°15' E 002°14'910.8
2016-Dec-01 13:16N 41°10' E 002°25'912.2
2016-Dec-01 12:33N 41°06' E 002°36'1211.9
2016-Dec-01 11:33N 41°01' E 002°49'1212.2
2016-Dec-01 10:33N 40°55' E 003°04'1212.2
2016-Dec-01 09:33N 40°49' E 003°18'1212.0
2016-Dec-01 08:33N 40°44' E 003°32'26712.4
2016-Nov-30 11:03N 38°41' E 008°40'21012.6
2016-Nov-29 18:22N 38°25' E 013°08'1012.4
2016-Nov-29 17:33N 38°24' E 013°21'1412.3
2016-Nov-29 16:23N 38°23' E 013°39'1512.1
2016-Nov-29 15:07N 38°21' E 013°58'2412.4
2016-Nov-29 13:10N 38°20' E 014°29'812.7
2016-Nov-29 12:33N 38°19' E 014°39'1312.7
2016-Nov-29 11:33N 38°18' E 014°55'1312.7
2016-Nov-29 10:33N 38°19' E 015°11'7 6.2
2016-Nov-29 09:29N 38°13' E 015°15'0 0.0
2016-Nov-29 08:29N 38°13' E 015°15'0 0.2
2016-Nov-29 07:29N 38°14' E 015°15'0 0.3
2016-Nov-29 06:34N 38°13' E 015°16'1 0.0
2016-Nov-27 10:33N 38°13' E 015°17'1 1.3
2016-Nov-27 09:31N 38°14' E 015°19'0 0.0
2016-Nov-27 08:31N 38°14' E 015°19'0 0.0
2016-Nov-27 07:10N 38°14' E 015°19'0 0.0
2016-Nov-27 06:31N 38°14' E 015°19'0 0.0
2016-Nov-27 05:31N 38°14' E 015°19'0 0.0
2016-Nov-27 04:28N 38°14' E 015°19'0 0.0
2016-Nov-27 03:28N 38°14' E 015°19'0 0.1
2016-Nov-27 02:28N 38°14' E 015°19'0 0.1
2016-Nov-27 01:28N 38°14' E 015°19'0 0.0
2016-Nov-27 00:28N 38°14' E 015°19'0 0.0
2016-Nov-26 23:28N 38°14' E 015°19'0 0.0
2016-Nov-26 22:28N 38°14' E 015°19'0 0.0
2016-Nov-26 21:28N 38°14' E 015°19'0 0.0
2016-Nov-26 20:30N 38°14' E 015°19'0 0.0
2016-Nov-26 19:33N 38°14' E 015°19'0 0.0
2016-Nov-26 18:33N 38°14' E 015°19'0 0.0
2016-Nov-26 17:33N 38°14' E 015°19'0 0.0
2016-Nov-26 16:33N 38°14' E 015°19'0 0.0
2016-Nov-26 15:33N 38°14' E 015°19'0 0.0
2016-Nov-26 14:33N 38°14' E 015°19'0 0.0
2016-Nov-26 13:33N 38°14' E 015°19'0 0.0
2016-Nov-26 12:32N 38°14' E 015°19'0 0.0
2016-Nov-26 11:32N 38°14' E 015°19'0 0.0
2016-Nov-26 10:32N 38°14' E 015°19'0 0.0
2016-Nov-26 09:32N 38°13' E 015°19'0 0.1
2016-Nov-26 08:32N 38°14' E 015°19'0 0.0
2016-Nov-26 07:32N 38°14' E 015°19'0 0.0
2016-Nov-26 06:32N 38°14' E 015°19'0 0.0
2016-Nov-26 05:32N 38°14' E 015°19'0 0.0
2016-Nov-26 04:32N 38°14' E 015°19'0 0.0
2016-Nov-26 03:32N 38°14' E 015°19'0 0.0
2016-Nov-26 02:32N 38°14' E 015°19'  

Dump ship's entire track history